Terminal Aerodrome Forecast
Issued by NWS Wilmington, NC

Home | Current Version | Previous Version | Text Only | Print | Product List | Glossary On
Versions: 1 2 3 4 5 6 7 8 9 10 11 12 13 14
000
FTUS42 KILM 281100
TAFFLO
TAF
KFLO 281120Z 2812/2912 26002KT P6SM SKC
     FM281500 27005KT P6SM SKC
     FM281700 22006KT P6SM SKC
     FM290000 19004KT P6SM SKC=

USA.gov is the U.S. government's official web portal to all federal, state and local government web resources and services.